createdAt,value
2018-09-18T00:01:56.229Z,7.00
2018-09-18T00:05:08.095Z,7.12
2018-09-18T00:08:19.935Z,7.03
2018-09-18T00:11:31.225Z,6.25
2018-09-18T00:14:42.551Z,5.75
2018-09-18T00:17:54.071Z,8.25
2018-09-18T00:21:05.379Z,6.10
2018-09-18T00:24:16.516Z,8.28
2018-09-18T00:27:27.590Z,8.53
2018-09-18T00:30:38.858Z,7.45
2018-09-18T00:33:49.998Z,6.03
2018-09-18T00:37:01.344Z,8.30
2018-09-18T00:40:12.537Z,7.53
2018-09-18T00:43:23.609Z,6.20
2018-09-18T00:46:34.831Z,8.03
2018-09-18T00:49:45.923Z,6.50
2018-09-18T00:52:57.161Z,7.03
2018-09-18T00:56:08.494Z,8.85
2018-09-18T00:59:20.541Z,7.45
2018-09-18T01:02:32.826Z,8.18
2018-09-18T01:05:44.439Z,8.30
2018-09-18T01:08:56.357Z,7.67
2018-09-18T01:12:08.203Z,8.23
2018-09-18T01:15:19.372Z,7.78
2018-09-18T01:18:35.637Z,6.92
2018-09-18T01:21:47.656Z,8.70
2018-09-18T01:24:59.093Z,9.00
2018-09-18T01:28:10.902Z,6.53
2018-09-18T01:31:22.335Z,7.65
2018-09-18T01:34:34.496Z,6.42
2018-09-18T01:37:46.349Z,6.92
2018-09-18T01:40:58.527Z,7.30
2018-09-18T01:44:10.363Z,9.45
2018-09-18T01:47:22.142Z,7.30
2018-09-18T01:50:33.242Z,8.48
2018-09-18T01:53:44.665Z,7.42
2018-09-18T01:56:56.640Z,8.73
2018-09-18T02:00:08.299Z,7.30
2018-09-18T02:03:19.920Z,6.03
2018-09-18T02:06:31.469Z,6.22
2018-09-18T02:09:42.602Z,8.38
2018-09-18T02:12:53.665Z,8.30
2018-09-18T02:16:05.220Z,6.85
2018-09-18T02:19:16.855Z,5.72
2018-09-18T02:22:28.800Z,7.85
2018-09-18T02:25:40.061Z,6.87
2018-09-18T02:28:51.200Z,7.03
2018-09-18T02:32:02.954Z,6.87
2018-09-18T02:35:14.834Z,8.60
2018-09-18T02:38:26.873Z,7.30
2018-09-18T02:41:38.720Z,6.92
2018-09-18T02:44:50.567Z,7.50
2018-09-18T02:48:01.980Z,8.25
2018-09-18T02:51:13.092Z,7.55
2018-09-18T02:54:24.129Z,7.60
2018-09-18T02:57:35.502Z,8.63
2018-09-18T03:00:46.665Z,7.83
2018-09-18T03:03:58.554Z,6.90
2018-09-18T03:07:10.164Z,7.10
2018-09-18T03:10:22.099Z,9.05
2018-09-18T03:13:36.670Z,7.58
2018-09-18T03:16:48.076Z,6.25
2018-09-18T03:20:00.020Z,8.50
2018-09-18T03:23:11.328Z,7.33
2018-09-18T03:26:22.852Z,8.48
2018-09-18T03:29:33.939Z,6.62
2018-09-18T03:32:45.101Z,7.17
2018-09-18T03:35:57.146Z,7.45
2018-09-18T03:39:08.621Z,8.15
2018-09-18T03:42:20.040Z,6.83
2018-09-18T03:45:32.035Z,6.50
2018-09-18T03:48:44.082Z,8.25
2018-09-18T03:51:55.096Z,9.05
2018-09-18T03:55:06.649Z,9.23
2018-09-18T03:58:18.505Z,7.70
2018-09-18T04:01:29.945Z,6.78
2018-09-18T04:04:42.501Z,5.97
2018-09-18T04:07:54.034Z,8.70
2018-09-18T04:11:05.748Z,6.10
2018-09-18T04:14:17.430Z,7.10
2018-09-18T04:17:28.567Z,9.33
2018-09-18T04:20:40.224Z,6.22
2018-09-18T04:23:52.077Z,8.98
2018-09-18T04:27:03.409Z,9.98
2018-09-18T04:30:15.235Z,9.90
2018-09-18T04:33:26.488Z,8.63
2018-09-18T04:36:37.754Z,8.10
2018-09-18T04:39:49.739Z,7.10
2018-09-18T04:43:00.790Z,7.83
2018-09-18T04:46:12.808Z,7.80
2018-09-18T04:49:24.740Z,9.35
2018-09-18T04:52:36.788Z,7.42
2018-09-18T04:55:48.883Z,8.75
2018-09-18T04:59:00.717Z,7.83
2018-09-18T05:02:12.718Z,8.88
2018-09-18T05:05:25.743Z,8.60
2018-09-18T05:08:37.935Z,7.90
2018-09-18T05:11:49.194Z,8.63
2018-09-18T05:15:00.442Z,10.08
2018-09-18T05:18:12.273Z,8.70
2018-09-18T05:21:24.219Z,9.40
2018-09-18T05:24:35.746Z,7.37
2018-09-18T05:27:47.033Z,10.08
2018-09-18T05:30:58.661Z,9.95
2018-09-18T05:34:09.938Z,7.50
2018-09-18T05:37:21.223Z,8.63
2018-09-18T05:40:32.768Z,8.03
2018-09-18T05:43:44.718Z,9.10
2018-09-18T05:46:55.973Z,9.40
2018-09-18T05:50:07.529Z,9.40
2018-09-18T05:53:19.179Z,9.40
2018-09-18T05:56:30.408Z,9.30
2018-09-18T05:59:41.601Z,9.23
2018-09-18T06:02:52.866Z,7.90
2018-09-18T06:06:05.294Z,9.10
2018-09-18T06:09:17.194Z,6.83
2018-09-18T06:12:29.135Z,8.90
2018-09-18T06:15:40.498Z,8.38
2018-09-18T06:18:51.717Z,9.00
2018-09-18T06:22:03.752Z,7.22
2018-09-18T06:25:15.866Z,9.60
2018-09-18T06:28:27.864Z,8.45
2018-09-18T06:31:39.283Z,10.10
2018-09-18T06:34:50.652Z,10.20
2018-09-18T06:38:02.485Z,8.75
2018-09-18T06:41:15.642Z,8.65
2018-09-18T06:44:26.670Z,8.68
2018-09-18T06:47:38.141Z,9.90
2018-09-18T06:50:49.666Z,8.23
2018-09-18T06:54:00.836Z,11.48
2018-09-18T06:57:11.977Z,16.37
2018-09-18T07:00:23.291Z,8.10
2018-09-18T07:03:34.995Z,10.68
2018-09-18T07:06:46.393Z,7.90
2018-09-18T07:09:58.130Z,8.78
2018-09-18T07:13:09.337Z,7.95
2018-09-18T07:16:21.221Z,9.10
2018-09-18T07:19:32.610Z,11.43
2018-09-18T07:22:44.527Z,10.05
2018-09-18T07:25:56.196Z,14.53
2018-09-18T07:29:07.780Z,9.18
2018-09-18T07:32:18.959Z,7.97
2018-09-18T07:35:30.054Z,8.18
2018-09-18T07:38:42.085Z,9.25
2018-09-18T07:41:53.277Z,9.38
2018-09-18T07:45:04.802Z,8.65
2018-09-18T07:48:16.540Z,7.55
2018-09-18T07:51:28.224Z,9.78
2018-09-18T07:54:39.403Z,8.15
2018-09-18T07:57:50.715Z,8.00
2018-09-18T08:01:02.500Z,10.28
2018-09-18T08:04:14.265Z,9.43
2018-09-18T08:07:26.394Z,7.40
2018-09-18T08:10:37.597Z,7.73
2018-09-18T08:13:48.798Z,9.97
2018-09-18T08:16:59.889Z,8.30
2018-09-18T08:20:10.694Z,7.40
2018-09-18T08:23:21.758Z,8.23
2018-09-18T08:26:32.667Z,8.63
2018-09-18T08:29:43.759Z,7.43
2018-09-18T08:32:55.047Z,7.10
2018-09-18T08:36:06.236Z,6.70
2018-09-18T08:39:18.025Z,7.07
2018-09-18T08:42:29.570Z,5.53
2018-09-18T08:45:40.788Z,8.50
2018-09-18T08:48:57.817Z,7.90
2018-09-18T08:52:10.003Z,6.27
2018-09-18T08:55:21.064Z,7.53
2018-09-18T08:58:32.079Z,6.13
2018-09-18T09:01:43.307Z,7.33
2018-09-18T09:04:54.350Z,7.90
2018-09-18T09:08:05.840Z,5.13
2018-09-18T09:11:17.670Z,7.27
2018-09-18T09:14:29.325Z,5.70
2018-09-18T09:17:40.297Z,7.77
2018-09-18T09:20:51.340Z,7.57
2018-09-18T09:24:02.400Z,7.67
2018-09-18T09:27:13.543Z,6.43
2018-09-18T09:30:24.383Z,7.07
2018-09-18T09:33:35.625Z,6.73
2018-09-18T09:36:46.848Z,7.10
2018-09-18T09:39:57.928Z,6.80
2018-09-18T09:43:09.265Z,6.30
2018-09-18T09:46:20.166Z,5.10
2018-09-18T09:49:31.196Z,6.70
2018-09-18T09:52:42.338Z,6.77
2018-09-18T09:55:53.573Z,6.83
2018-09-18T09:59:04.828Z,6.30
2018-09-18T10:02:22.766Z,6.20
2018-09-18T10:05:34.135Z,4.33
2018-09-18T10:08:45.804Z,5.23
2018-09-18T10:11:56.800Z,5.00
2018-09-18T10:15:08.491Z,4.60
2018-09-18T10:18:19.935Z,5.23
2018-09-18T10:21:30.850Z,4.43
2018-09-18T10:24:42.063Z,6.20
2018-09-18T10:27:53.133Z,5.83
2018-09-18T10:31:04.962Z,5.83
2018-09-18T10:34:16.112Z,4.87
2018-09-18T10:37:27.186Z,6.20
2018-09-18T10:40:38.317Z,6.20
2018-09-18T10:43:49.719Z,5.07
2018-09-18T10:47:00.783Z,5.73
2018-09-18T10:50:11.775Z,5.30
2018-09-18T10:53:23.238Z,5.60
2018-09-18T10:56:34.809Z,5.70
2018-09-18T10:59:46.006Z,5.27
2018-09-18T11:02:57.327Z,4.50
2018-09-18T11:06:09.158Z,5.73
2018-09-18T11:09:21.220Z,4.00
2018-09-18T11:12:32.307Z,4.90
2018-09-18T11:15:43.372Z,5.20
2018-09-18T11:18:54.636Z,6.03
2018-09-18T11:22:06.209Z,5.93
2018-09-18T11:25:17.544Z,5.17
2018-09-18T11:28:28.783Z,5.00
2018-09-18T11:31:39.755Z,4.53
2018-09-18T11:34:50.820Z,7.77
2018-09-18T11:38:01.879Z,4.80
2018-09-18T11:41:12.883Z,6.33
2018-09-18T11:44:24.169Z,4.13
2018-09-18T11:47:35.102Z,4.10
2018-09-18T11:50:46.835Z,5.60
2018-09-18T11:53:57.981Z,5.47
2018-09-18T11:57:09.379Z,5.90
2018-09-18T12:00:20.432Z,4.73
2018-09-18T12:03:31.507Z,4.60
2018-09-18T12:06:42.844Z,4.90
2018-09-18T12:09:54.933Z,5.27
2018-09-18T12:13:06.061Z,5.63
2018-09-18T12:16:17.236Z,5.47
2018-09-18T12:19:28.408Z,6.30
2018-09-18T12:22:39.346Z,5.47
2018-09-18T12:25:50.365Z,5.23
2018-09-18T12:29:01.440Z,5.73
2018-09-18T12:32:12.426Z,5.83
2018-09-18T12:35:23.687Z,5.27
2018-09-18T12:38:34.981Z,5.07
2018-09-18T12:41:46.378Z,6.00
2018-09-18T12:44:58.389Z,4.90
2018-09-18T12:48:10.174Z,5.23
2018-09-18T12:51:21.183Z,5.30
2018-09-18T12:54:32.198Z,5.93
2018-09-18T12:57:43.176Z,6.00
2018-09-18T13:00:54.419Z,5.10
2018-09-18T13:04:06.060Z,5.57
2018-09-18T13:07:17.726Z,6.00
2018-09-18T13:10:29.818Z,5.97
2018-09-18T13:13:41.599Z,6.83
2018-09-18T13:16:52.746Z,5.50
2018-09-18T13:20:04.218Z,6.17
2018-09-18T13:23:15.992Z,5.40
2018-09-18T13:26:26.771Z,7.47
2018-09-18T13:29:38.349Z,6.37
2018-09-18T13:32:49.147Z,6.17
2018-09-18T13:36:00.155Z,6.20
2018-09-18T13:39:11.237Z,5.87
2018-09-18T13:42:22.290Z,7.37
2018-09-18T13:45:33.614Z,6.30
2018-09-18T13:48:45.182Z,5.83
2018-09-18T13:51:56.204Z,6.70
2018-09-18T13:55:08.126Z,3.40
2018-09-18T13:58:19.621Z,8.40
2018-09-18T14:01:31.318Z,6.07
2018-09-18T14:04:42.311Z,7.10
2018-09-18T14:07:53.424Z,6.43
2018-09-18T14:11:04.646Z,7.80
2018-09-18T14:14:16.218Z,7.40
2018-09-18T14:17:28.064Z,6.90
2018-09-18T14:20:39.564Z,5.50
2018-09-18T14:23:50.633Z,6.90
2018-09-18T14:27:01.789Z,6.40
2018-09-18T14:30:12.827Z,5.40
2018-09-18T14:33:24.030Z,6.50
2018-09-18T14:36:35.207Z,7.10
2018-09-18T14:39:46.459Z,7.07
2018-09-18T14:42:57.790Z,4.27
2018-09-18T14:46:08.857Z,5.47
2018-09-18T14:49:20.130Z,6.63
2018-09-18T14:52:31.245Z,5.60
2018-09-18T14:55:43.012Z,6.27
2018-09-18T14:58:54.661Z,7.80
2018-09-18T15:02:06.062Z,6.37
2018-09-18T15:05:17.698Z,6.87
2018-09-18T15:08:28.922Z,6.20
2018-09-18T15:11:40.206Z,5.43
2018-09-18T15:14:51.836Z,5.20
2018-09-18T15:18:03.593Z,4.70
2018-09-18T15:21:15.695Z,4.97
2018-09-18T15:24:26.643Z,4.50
2018-09-18T15:27:37.800Z,4.47
2018-09-18T15:30:49.026Z,6.13
2018-09-18T15:33:59.913Z,5.40
2018-09-18T15:37:11.258Z,4.50
2018-09-18T15:40:22.575Z,4.73
2018-09-18T15:43:33.840Z,6.80
2018-09-18T15:46:45.100Z,4.90
2018-09-18T15:49:56.176Z,5.63
2018-09-18T15:53:07.947Z,5.70
2018-09-18T15:56:18.811Z,7.33
2018-09-18T15:59:30.075Z,7.30
2018-09-18T16:02:41.200Z,5.73
2018-09-18T16:05:52.760Z,5.10
2018-09-18T16:09:05.594Z,4.97
2018-09-18T16:12:17.285Z,4.97
2018-09-18T16:15:28.453Z,6.10
2018-09-18T16:18:39.993Z,6.70
2018-09-18T16:21:50.875Z,5.20
2018-09-18T16:25:01.903Z,5.27
2018-09-18T16:28:13.629Z,6.63
2018-09-18T16:31:25.087Z,6.30
2018-09-18T16:34:36.176Z,7.60
2018-09-18T16:37:47.177Z,5.23
2018-09-18T16:40:58.357Z,5.30
2018-09-18T16:44:10.111Z,7.33
2018-09-18T16:47:21.934Z,6.80
2018-09-18T16:50:33.258Z,6.03
2018-09-18T16:53:44.270Z,7.30
2018-09-18T16:56:55.859Z,6.10
2018-09-18T17:00:08.087Z,7.83
2018-09-18T17:03:19.737Z,6.63
2018-09-18T17:06:31.295Z,5.80
2018-09-18T17:09:42.616Z,7.30
2018-09-18T17:12:54.076Z,8.83
2018-09-18T17:16:05.326Z,7.70
2018-09-18T17:19:16.574Z,6.73
2018-09-18T17:22:27.527Z,6.10
2018-09-18T17:25:38.635Z,6.20
2018-09-18T17:28:50.037Z,9.13
2018-09-18T17:32:01.418Z,12.27
2018-09-18T17:35:12.328Z,11.33
2018-09-18T17:38:23.290Z,11.90
2018-09-18T17:41:34.331Z,12.40
2018-09-18T17:44:46.109Z,12.53
2018-09-18T17:47:57.184Z,9.83
2018-09-18T17:51:08.206Z,9.27
2018-09-18T17:54:19.440Z,10.93
2018-09-18T17:57:31.105Z,10.23
2018-09-18T18:00:42.281Z,8.03
2018-09-18T18:03:53.971Z,7.83
2018-09-18T18:07:04.720Z,8.20
2018-09-18T18:10:16.796Z,8.20
2018-09-18T18:13:28.660Z,8.60
2018-09-18T18:16:40.489Z,9.37
2018-09-18T18:19:51.595Z,7.70
2018-09-18T18:23:02.661Z,10.50
2018-09-18T18:26:13.630Z,9.40
2018-09-18T18:29:25.139Z,8.37
2018-09-18T18:32:36.463Z,9.13
2018-09-18T18:35:47.831Z,7.72
2018-09-18T18:38:58.737Z,7.00
2018-09-18T18:42:09.805Z,7.67
2018-09-18T18:45:20.875Z,8.58
2018-09-18T18:48:32.095Z,10.15
2018-09-18T18:51:43.792Z,8.15
2018-09-18T18:54:54.661Z,7.57
2018-09-18T18:58:06.140Z,6.97
2018-09-18T19:01:17.437Z,7.70
2018-09-18T19:04:29.054Z,7.22
2018-09-18T19:07:41.000Z,7.30
2018-09-18T19:10:52.981Z,7.08
2018-09-18T19:14:04.824Z,7.35
2018-09-18T19:17:15.797Z,5.97
2018-09-18T19:20:26.613Z,7.30
2018-09-18T19:23:38.026Z,8.30
2018-09-18T19:26:50.137Z,7.15
2018-09-18T19:30:01.244Z,7.63
2018-09-18T19:33:12.519Z,6.30
2018-09-18T19:36:23.801Z,8.25
2018-09-18T19:39:35.264Z,8.23
2018-09-18T19:42:46.461Z,8.50
2018-09-18T19:45:57.637Z,8.28
2018-09-18T19:49:09.665Z,7.30
2018-09-18T19:52:20.859Z,5.90
2018-09-18T19:55:32.888Z,6.90
2018-09-18T19:58:44.586Z,7.63
2018-09-18T20:01:55.924Z,6.58
2018-09-18T20:05:07.827Z,8.20
2018-09-18T20:08:19.163Z,8.63
2018-09-18T20:11:30.584Z,6.62
2018-09-18T20:14:42.171Z,7.33
2018-09-18T20:17:53.898Z,8.20
2018-09-18T20:21:05.436Z,8.25
2018-09-18T20:24:16.794Z,7.62
2018-09-18T20:27:28.504Z,6.65
2018-09-18T20:30:39.883Z,7.72
2018-09-18T20:33:51.381Z,8.25
2018-09-18T20:37:02.431Z,9.45
2018-09-18T20:40:13.736Z,8.53
2018-09-18T20:43:25.051Z,8.63
2018-09-18T20:46:36.365Z,9.38
2018-09-18T20:49:47.451Z,7.03
2018-09-18T20:52:58.797Z,7.08
2018-09-18T20:56:10.239Z,7.58
2018-09-18T20:59:21.568Z,8.93
2018-09-18T21:02:33.679Z,7.80
2018-09-18T21:05:44.779Z,10.00
2018-09-18T21:08:55.853Z,9.68
2018-09-18T21:12:07.983Z,9.75
2018-09-18T21:15:19.500Z,8.18
2018-09-18T21:18:31.400Z,6.75
2018-09-18T21:21:43.165Z,7.95
2018-09-18T21:25:20.992Z,8.80
2018-09-18T21:28:33.004Z,9.53
2018-09-18T21:31:44.060Z,9.25
2018-09-18T21:34:55.983Z,8.60
2018-09-18T21:38:07.863Z,8.55
2018-09-18T21:41:19.863Z,8.63
2018-09-18T21:44:31.325Z,8.50
2018-09-18T21:47:42.578Z,8.60
2018-09-18T21:50:54.693Z,7.65
2018-09-18T21:54:06.387Z,7.85
2018-09-18T21:57:18.421Z,7.37
2018-09-18T22:00:30.630Z,8.70
2018-09-18T22:03:42.260Z,7.45
2018-09-18T22:06:53.421Z,9.33
2018-09-18T22:10:05.613Z,7.92
2018-09-18T22:13:16.785Z,7.95
2018-09-18T22:16:29.166Z,8.55
2018-09-18T22:19:40.959Z,9.30
2018-09-18T22:22:52.799Z,8.85
2018-09-18T22:26:04.053Z,9.60
2018-09-18T22:29:15.187Z,9.68
2018-09-18T22:32:26.347Z,8.03
2018-09-18T22:35:37.614Z,8.93
2018-09-18T22:38:49.625Z,8.90
2018-09-18T22:42:00.748Z,10.35
2018-09-18T22:45:11.979Z,6.83
2018-09-18T22:48:23.144Z,8.40
2018-09-18T22:51:34.233Z,8.75
2018-09-18T22:54:45.457Z,8.33
2018-09-18T22:57:56.881Z,9.95
2018-09-18T23:01:08.385Z,7.28
2018-09-18T23:04:19.505Z,6.65
2018-09-18T23:07:31.439Z,10.78
2018-09-18T23:10:42.592Z,8.08
2018-09-18T23:13:53.600Z,8.78
2018-09-18T23:17:06.035Z,8.95
2018-09-18T23:20:17.447Z,10.28
2018-09-18T23:23:29.421Z,8.68
2018-09-18T23:26:40.659Z,9.65
2018-09-18T23:29:52.262Z,9.05
2018-09-18T23:33:03.819Z,8.10
2018-09-18T23:36:14.957Z,8.83
2018-09-18T23:39:26.857Z,8.73
2018-09-18T23:42:38.128Z,10.43
2018-09-18T23:45:50.048Z,10.53
2018-09-18T23:49:01.178Z,9.68
2018-09-18T23:52:12.257Z,8.48
2018-09-18T23:55:23.655Z,9.58
2018-09-18T23:58:35.686Z,9.45
